»·PEaware :: CVBKW L52-L88

CVBKW :: L52-L88

FLIGHT INFORMATION

Flight Status: Arrived
Operator: Unknown
More flights by this operator :: More flights under this callsign
Pilot: Andrey B. (45648)
Aircraft: CIRRUS SR-22
(SR22)
More flights by this aircraft type
Origin: L52 Oceano Co
United States
Destination: L88 New Cuyama
United States
More flights between these airports :: More routes between these airports
Route:
File this flight plan on PilotEdge
Remarks:
Altitude:
(Current/Filed)
5,500ft
Speed:
(Current/Filed)
150kts
Departed: 25-Nov-23 01:14 PM
Arrived: 25-Nov-23 01:45 PM
Distance/Time
Traveled:
47nm/0:30
Distance/Time
To Go:
Arrived

Flight Plot

Page will automatically refresh every two minutes.


Map Options




Map Legend


Flown Route
Filed Route
Departure Airport
Arrival Airport
Navaid (VOR, NDB)
Fix

Horizontal Profiles

Position Reports

Time Latitude Longitude Heading Altitude Ground
Speed
25-Nov-23 12:55 35.103181 -120.624264 18 24ft 0kts
25-Nov-23 12:56 35.103181 -120.624264 18 25ft 0kts
25-Nov-23 12:57 35.103181 -120.624264 18 25ft 0kts
25-Nov-23 12:58 35.103181 -120.624264 18 25ft 0kts
25-Nov-23 12:59 35.103181 -120.624264 18 25ft 0kts
25-Nov-23 13:00 35.103181 -120.624264 18 25ft 0kts
25-Nov-23 13:01 35.103181 -120.624264 18 23ft 0kts
25-Nov-23 13:02 35.103181 -120.624264 18 23ft 0kts
25-Nov-23 13:03 35.103181 -120.624264 18 23ft 0kts
25-Nov-23 13:04 35.103520 -120.624798 215 23ft 0kts
25-Nov-23 13:05 35.103520 -120.624798 215 23ft 0kts
25-Nov-23 13:06 35.103520 -120.624798 215 23ft 0kts
25-Nov-23 13:07 35.103520 -120.624798 215 23ft 0kts
25-Nov-23 13:08 35.103520 -120.624798 215 23ft 0kts
25-Nov-23 13:09 35.103520 -120.624798 215 23ft 0kts
25-Nov-23 13:10 35.103520 -120.624798 215 36ft 0kts
25-Nov-23 13:11 35.103520 -120.624798 215 36ft 0kts
25-Nov-23 13:12 35.103445 -120.625361 208 20ft 0kts
25-Nov-23 13:13 35.098297 -120.615530 121 171ft 96kts
25-Nov-23 13:14 35.085590 -120.589383 107 1842ft 90kts
25-Nov-23 13:15 35.081096 -120.560653 105 3715ft 81kts
25-Nov-23 13:16 35.077076 -120.534350 105 5112ft 78kts
25-Nov-23 13:17 35.071589 -120.501437 103 5497ft 132kts
25-Nov-23 13:18 35.063818 -120.452049 102 5487ft 154kts
25-Nov-23 13:19 35.055666 -120.400219 103 5491ft 156kts
25-Nov-23 13:20 35.047419 -120.348230 103 5476ft 153kts
25-Nov-23 13:21 35.039167 -120.296702 102 5487ft 155kts
25-Nov-23 13:22 35.030924 -120.245083 102 5507ft 156kts
25-Nov-23 13:23 35.022548 -120.192776 102 5504ft 156kts
25-Nov-23 13:24 35.014117 -120.140346 102 5505ft 158kts
25-Nov-23 13:25 35.005618 -120.087781 102 5708ft 146kts
25-Nov-23 13:26 34.999456 -120.048960 101 6975ft 114kts
25-Nov-23 13:27 34.991772 -120.002206 101 6996ft 155kts
25-Nov-23 13:28 34.983307 -119.950298 102 6669ft 146kts
25-Nov-23 13:29 34.975603 -119.902740 102 5836ft 145kts
25-Nov-23 13:30 34.968627 -119.853173 86 5047ft 150kts
25-Nov-23 13:31 34.972354 -119.802666 85 4240ft 148kts
25-Nov-23 13:32 34.974923 -119.752777 86 3437ft 147kts
25-Nov-23 13:33 34.976089 -119.707681 86 3349ft 120kts
25-Nov-23 13:34 34.977223 -119.664740 89 4000ft 136kts
25-Nov-23 13:35 34.950807 -119.664993 212 3987ft 119kts
25-Nov-23 13:36 34.922904 -119.685793 212 3891ft 122kts
25-Nov-23 13:37 34.890590 -119.704936 162 3192ft 144kts
25-Nov-23 13:38 34.901374 -119.688580 343 3179ft 114kts
25-Nov-23 13:39 34.924907 -119.709396 301 3180ft 107kts
25-Nov-23 13:40 34.943246 -119.731004 36 3188ft 100kts
25-Nov-23 13:41 34.948092 -119.704933 112 2498ft 83kts
25-Nov-23 13:42 34.939262 -119.683815 118 2198ft 50kts
25-Nov-23 13:43 34.939392 -119.684233 294 2198ft 44kts
25-Nov-23 13:44 34.943522 -119.691162 289 2159ft 0kts
25-Nov-23 13:45 34.943522 -119.691162 289 2159ft 0kts

Navigation Log

Ident Type
Flight plan parsing failed, navigation log unavailable